Mississippi River (Missouri), Chester (07020500)

StateMissouriLatestUnknown (273000 cfs)
RiverMississippi RiverRatingObservedEstimated
Updated2020-02-25 16:00 (23 minutes ago)Flood - The river is flooding. Obstacles can be treacherous or deadly. The river should be avoided at this stage for casual trips and definitely for the inexperienced. Trips should be attempted only with protective gear and equipment.Flood(none)(none)
Discharge273000 cfs (median: 183000 cfs)High - The river is high and potentially dangerous, especially for the young and / or inexperienced. Normal stream obstacles are sometimes difficult to navigate. Extended distances can be attempted, but canoe travel may not be advisable.High(none)(none)
Height18.89 feetGood - Conditions are ideal for a canoe or kayak. Boats typically will drag on fewer than one-quarter of riffles, if at all, and portages are unnecessary or rare. Normal float lengths can be attempted without a problem.Good(none)(none)
TrendRising (rising over 24 hours)Low - River is low but can still be floated. Some riffles are okay but most come with significant dragging and might need a portage. Float lengths should be reduced to accommodate low flow, dragging, and portages.Low(none)(none)
USGSExternal icon USGS Site (External icon Google Maps)Poor - River is too low to float comfortably. Most or all riffles will drag or must be portaged and some obstacles (such as slick shelf rock) cause undue problems. Avoid the river at this stage for casual paddling trips.Poor(none)(none)

Trending Data

Plot Image

Trips for Mississippi River (Missouri), Chester (07020500)

DateStartEndDistanceConditionDischargeHeightFishingDetails

A total of 0 rows are displayed.

Condition Descriptions

Fishing Conditions

Fish Species

Notes

Classic Trip List

The classic River Trips application is still available for use. It is updated with the new system using a data retrofit. It is no longer maintained. The original River Trips application is no longer updated (as of 1 Dec 2016) but can be checked for errors or for the condition of the data before it was converted to the new system.

Gauge Data Table

ObservationHeightDischargeMaximum
Discharge
Minimum
Discharge
Mean
Discharge
P05P10P20P25P50
(Median)
P75P80P90P95
2020-02-25 16:00 18.89 273000 589000 (1985) 51600 (1964) 204000 72600 80400 98100 107000 183000 259000 294000 379000 428000
2020-02-25 15:30 18.77 271000 589000 (1985) 51600 (1964) 204000 72600 80400 98100 107000 183000 259000 294000 379000 428000
2020-02-25 15:00 18.80 271000 589000 (1985) 51600 (1964) 204000 72600 80400 98100 107000 183000 259000 294000 379000 428000
2020-02-25 14:30 18.86 272000 589000 (1985) 51600 (1964) 204000 72600 80400 98100 107000 183000 259000 294000 379000 428000
2020-02-25 14:00 18.83 272000 589000 (1985) 51600 (1964) 204000 72600 80400 98100 107000 183000 259000 294000 379000 428000
2020-02-25 13:30 18.74 270000 589000 (1985) 51600 (1964) 204000 72600 80400 98100 107000 183000 259000 294000 379000 428000
2020-02-25 13:00 18.74 270000 589000 (1985) 51600 (1964) 204000 72600 80400 98100 107000 183000 259000 294000 379000 428000
2020-02-25 12:30 18.70 270000 589000 (1985) 51600 (1964) 204000 72600 80400 98100 107000 183000 259000 294000 379000 428000
2020-02-25 12:00 18.59 268000 589000 (1985) 51600 (1964) 204000 72600 80400 98100 107000 183000 259000 294000 379000 428000
2020-02-25 11:30 18.49 266000 589000 (1985) 51600 (1964) 204000 72600 80400 98100 107000 183000 259000 294000 379000 428000
2020-02-25 11:00 18.70 270000 589000 (1985) 51600 (1964) 204000 72600 80400 98100 107000 183000 259000 294000 379000 428000
2020-02-25 10:30 18.64 269000 589000 (1985) 51600 (1964) 204000 72600 80400 98100 107000 183000 259000 294000 379000 428000
2020-02-25 10:00 18.55 267000 589000 (1985) 51600 (1964) 204000 72600 80400 98100 107000 183000 259000 294000 379000 428000
2020-02-25 09:30 18.62 269000 589000 (1985) 51600 (1964) 204000 72600 80400 98100 107000 183000 259000 294000 379000 428000
2020-02-25 09:00 18.55 267000 589000 (1985) 51600 (1964) 204000 72600 80400 98100 107000 183000 259000 294000 379000 428000
2020-02-25 08:30 18.35 264000 589000 (1985) 51600 (1964) 204000 72600 80400 98100 107000 183000 259000 294000 379000 428000
2020-02-25 08:00 18.55 267000 589000 (1985) 51600 (1964) 204000 72600 80400 98100 107000 183000 259000 294000 379000 428000
2020-02-25 07:30 18.51 267000 589000 (1985) 51600 (1964) 204000 72600 80400 98100 107000 183000 259000 294000 379000 428000
2020-02-25 07:00 18.49 266000 589000 (1985) 51600 (1964) 204000 72600 80400 98100 107000 183000 259000 294000 379000 428000
2020-02-25 06:30 18.46 266000 589000 (1985) 51600 (1964) 204000 72600 80400 98100 107000 183000 259000 294000 379000 428000
2020-02-25 06:00 18.44 266000 589000 (1985) 51600 (1964) 204000 72600 80400 98100 107000 183000 259000 294000 379000 428000
2020-02-25 05:30 18.44 266000 589000 (1985) 51600 (1964) 204000 72600 80400 98100 107000 183000 259000 294000 379000 428000
2020-02-25 05:00 18.33 264000 589000 (1985) 51600 (1964) 204000 72600 80400 98100 107000 183000 259000 294000 379000 428000
2020-02-25 04:30 18.43 265000 589000 (1985) 51600 (1964) 204000 72600 80400 98100 107000 183000 259000 294000 379000 428000
2020-02-25 04:00 18.42 265000 589000 (1985) 51600 (1964) 204000 72600 80400 98100 107000 183000 259000 294000 379000 428000
2020-02-25 03:30 18.38 265000 589000 (1985) 51600 (1964) 204000 72600 80400 98100 107000 183000 259000 294000 379000 428000
2020-02-25 03:00 18.39 265000 589000 (1985) 51600 (1964) 204000 72600 80400 98100 107000 183000 259000 294000 379000 428000
2020-02-25 02:30 18.39 265000 589000 (1985) 51600 (1964) 204000 72600 80400 98100 107000 183000 259000 294000 379000 428000
2020-02-25 02:00 18.36 264000 589000 (1985) 51600 (1964) 204000 72600 80400 98100 107000 183000 259000 294000 379000 428000
2020-02-25 01:30 18.31 264000 589000 (1985) 51600 (1964) 204000 72600 80400 98100 107000 183000 259000 294000 379000 428000
2020-02-25 01:00 18.30 263000 589000 (1985) 51600 (1964) 204000 72600 80400 98100 107000 183000 259000 294000 379000 428000
2020-02-25 00:30 18.26 263000 589000 (1985) 51600 (1964) 204000 72600 80400 98100 107000 183000 259000 294000 379000 428000
2020-02-25 00:00 18.28 263000 589000 (1985) 51600 (1964) 204000 72600 80400 98100 107000 183000 259000 294000 379000 428000
2020-02-24 23:30 18.25 263000 514000 (1985) 53700 (1964) 201000 69100 76700 99600 111000 183000 258000 287000 382000 430000
2020-02-24 23:00 18.23 262000 514000 (1985) 53700 (1964) 201000 69100 76700 99600 111000 183000 258000 287000 382000 430000
2020-02-24 22:30 18.23 262000 514000 (1985) 53700 (1964) 201000 69100 76700 99600 111000 183000 258000 287000 382000 430000
2020-02-24 22:00 18.15 261000 514000 (1985) 53700 (1964) 201000 69100 76700 99600 111000 183000 258000 287000 382000 430000
2020-02-24 21:30 18.23 262000 514000 (1985) 53700 (1964) 201000 69100 76700 99600 111000 183000 258000 287000 382000 430000
2020-02-24 21:00 18.25 263000 514000 (1985) 53700 (1964) 201000 69100 76700 99600 111000 183000 258000 287000 382000 430000
2020-02-24 20:30 18.20 262000 514000 (1985) 53700 (1964) 201000 69100 76700 99600 111000 183000 258000 287000 382000 430000
2020-02-24 20:00 18.23 262000 514000 (1985) 53700 (1964) 201000 69100 76700 99600 111000 183000 258000 287000 382000 430000
2020-02-24 19:30 18.21 262000 514000 (1985) 53700 (1964) 201000 69100 76700 99600 111000 183000 258000 287000 382000 430000
2020-02-24 19:00 18.16 261000 514000 (1985) 53700 (1964) 201000 69100 76700 99600 111000 183000 258000 287000 382000 430000
2020-02-24 18:30 18.17 261000 514000 (1985) 53700 (1964) 201000 69100 76700 99600 111000 183000 258000 287000 382000 430000
2020-02-24 18:00 18.11 260000 514000 (1985) 53700 (1964) 201000 69100 76700 99600 111000 183000 258000 287000 382000 430000
2020-02-24 17:30 18.15 261000 514000 (1985) 53700 (1964) 201000 69100 76700 99600 111000 183000 258000 287000 382000 430000
2020-02-24 17:00 18.14 261000 514000 (1985) 53700 (1964) 201000 69100 76700 99600 111000 183000 258000 287000 382000 430000
2020-02-24 16:30 18.16 261000 514000 (1985) 53700 (1964) 201000 69100 76700 99600 111000 183000 258000 287000 382000 430000
2020-02-24 16:00 18.16 261000 514000 (1985) 53700 (1964) 201000 69100 76700 99600 111000 183000 258000 287000 382000 430000
2020-02-24 15:30 18.09 260000 514000 (1985) 53700 (1964) 201000 69100 76700 99600 111000 183000 258000 287000 382000 430000
2020-02-24 15:00 18.08 260000 514000 (1985) 53700 (1964) 201000 69100 76700 99600 111000 183000 258000 287000 382000 430000
2020-02-24 14:30 18.09 260000 514000 (1985) 53700 (1964) 201000 69100 76700 99600 111000 183000 258000 287000 382000 430000
2020-02-24 14:00 18.08 260000 514000 (1985) 53700 (1964) 201000 69100 76700 99600 111000 183000 258000 287000 382000 430000
2020-02-24 13:30 18.08 260000 514000 (1985) 53700 (1964) 201000 69100 76700 99600 111000 183000 258000 287000 382000 430000
2020-02-24 13:00 18.12 261000 514000 (1985) 53700 (1964) 201000 69100 76700 99600 111000 183000 258000 287000 382000 430000
2020-02-24 12:30 18.06 260000 514000 (1985) 53700 (1964) 201000 69100 76700 99600 111000 183000 258000 287000 382000 430000
2020-02-24 12:00 18.11 260000 514000 (1985) 53700 (1964) 201000 69100 76700 99600 111000 183000 258000 287000 382000 430000
2020-02-24 11:30 18.07 260000 514000 (1985) 53700 (1964) 201000 69100 76700 99600 111000 183000 258000 287000 382000 430000
2020-02-24 11:00 18.08 260000 514000 (1985) 53700 (1964) 201000 69100 76700 99600 111000 183000 258000 287000 382000 430000
2020-02-24 10:30 18.04 259000 514000 (1985) 53700 (1964) 201000 69100 76700 99600 111000 183000 258000 287000 382000 430000
2020-02-24 10:00 18.07 260000 514000 (1985) 53700 (1964) 201000 69100 76700 99600 111000 183000 258000 287000 382000 430000
2020-02-24 09:30 18.04 259000 514000 (1985) 53700 (1964) 201000 69100 76700 99600 111000 183000 258000 287000 382000 430000
2020-02-24 09:00 18.03 259000 514000 (1985) 53700 (1964) 201000 69100 76700 99600 111000 183000 258000 287000 382000 430000
2020-02-24 08:30 18.04 259000 514000 (1985) 53700 (1964) 201000 69100 76700 99600 111000 183000 258000 287000 382000 430000
2020-02-24 08:00 18.04 259000 514000 (1985) 53700 (1964) 201000 69100 76700 99600 111000 183000 258000 287000 382000 430000
2020-02-24 07:30 18.01 259000 514000 (1985) 53700 (1964) 201000 69100 76700 99600 111000 183000 258000 287000 382000 430000
2020-02-24 07:00 17.92 257000 514000 (1985) 53700 (1964) 201000 69100 76700 99600 111000 183000 258000 287000 382000 430000
2020-02-24 06:30 18.03 259000 514000 (1985) 53700 (1964) 201000 69100 76700 99600 111000 183000 258000 287000 382000 430000
2020-02-24 06:00 18.04 259000 514000 (1985) 53700 (1964) 201000 69100 76700 99600 111000 183000 258000 287000 382000 430000
2020-02-24 05:30 18.00 259000 514000 (1985) 53700 (1964) 201000 69100 76700 99600 111000 183000 258000 287000 382000 430000
2020-02-24 05:00 17.98 258000 514000 (1985) 53700 (1964) 201000 69100 76700 99600 111000 183000 258000 287000 382000 430000
2020-02-24 04:30 18.00 259000 514000 (1985) 53700 (1964) 201000 69100 76700 99600 111000 183000 258000 287000 382000 430000
2020-02-24 04:00 18.02 259000 514000 (1985) 53700 (1964) 201000 69100 76700 99600 111000 183000 258000 287000 382000 430000
2020-02-24 03:30 17.96 258000 514000 (1985) 53700 (1964) 201000 69100 76700 99600 111000 183000 258000 287000 382000 430000
2020-02-24 03:00 17.98 258000 514000 (1985) 53700 (1964) 201000 69100 76700 99600 111000 183000 258000 287000 382000 430000
2020-02-24 02:30 17.99 258000 514000 (1985) 53700 (1964) 201000 69100 76700 99600 111000 183000 258000 287000 382000 430000
2020-02-24 02:00 17.99 258000 514000 (1985) 53700 (1964) 201000 69100 76700 99600 111000 183000 258000 287000 382000 430000
2020-02-24 01:30 17.94 258000 514000 (1985) 53700 (1964) 201000 69100 76700 99600 111000 183000 258000 287000 382000 430000
2020-02-24 01:00 17.98 258000 514000 (1985) 53700 (1964) 201000 69100 76700 99600 111000 183000 258000 287000 382000 430000
2020-02-24 00:30 17.93 258000 514000 (1985) 53700 (1964) 201000 69100 76700 99600 111000 183000 258000 287000 382000 430000
2020-02-24 00:00 17.91 257000 514000 (1985) 53700 (1964) 201000 69100 76700 99600 111000 183000 258000 287000 382000 430000
2020-02-23 23:30 17.95 258000 471000 (1982) 53000 (1964) 193000 65300 74600 105000 109000 179000 256000 271000 363000 414000
2020-02-23 23:00 17.95 258000 471000 (1982) 53000 (1964) 193000 65300 74600 105000 109000 179000 256000 271000 363000 414000
2020-02-23 22:30 17.91 257000 471000 (1982) 53000 (1964) 193000 65300 74600 105000 109000 179000 256000 271000 363000 414000
2020-02-23 22:00 17.96 258000 471000 (1982) 53000 (1964) 193000 65300 74600 105000 109000 179000 256000 271000 363000 414000
2020-02-23 21:30 17.95 258000 471000 (1982) 53000 (1964) 193000 65300 74600 105000 109000 179000 256000 271000 363000 414000
2020-02-23 21:00 17.89 257000 471000 (1982) 53000 (1964) 193000 65300 74600 105000 109000 179000 256000 271000 363000 414000
2020-02-23 20:30 17.93 258000 471000 (1982) 53000 (1964) 193000 65300 74600 105000 109000 179000 256000 271000 363000 414000
2020-02-23 20:00 17.89 257000 471000 (1982) 53000 (1964) 193000 65300 74600 105000 109000 179000 256000 271000 363000 414000
2020-02-23 19:30 17.95 258000 471000 (1982) 53000 (1964) 193000 65300 74600 105000 109000 179000 256000 271000 363000 414000
2020-02-23 19:00 17.92 257000 471000 (1982) 53000 (1964) 193000 65300 74600 105000 109000 179000 256000 271000 363000 414000
2020-02-23 18:30 17.93 258000 471000 (1982) 53000 (1964) 193000 65300 74600 105000 109000 179000 256000 271000 363000 414000
2020-02-23 18:00 17.96 258000 471000 (1982) 53000 (1964) 193000 65300 74600 105000 109000 179000 256000 271000 363000 414000
2020-02-23 17:30 17.95 258000 471000 (1982) 53000 (1964) 193000 65300 74600 105000 109000 179000 256000 271000 363000 414000
2020-02-23 17:00 17.96 258000 471000 (1982) 53000 (1964) 193000 65300 74600 105000 109000 179000 256000 271000 363000 414000
2020-02-23 16:30 17.96 258000 471000 (1982) 53000 (1964) 193000 65300 74600 105000 109000 179000 256000 271000 363000 414000
2020-02-23 16:00 17.94 258000 471000 (1982) 53000 (1964) 193000 65300 74600 105000 109000 179000 256000 271000 363000 414000
2020-02-23 15:30 17.98 258000 471000 (1982) 53000 (1964) 193000 65300 74600 105000 109000 179000 256000 271000 363000 414000
2020-02-23 15:00 18.05 259000 471000 (1982) 53000 (1964) 193000 65300 74600 105000 109000 179000 256000 271000 363000 414000
2020-02-23 14:30 17.97 258000 471000 (1982) 53000 (1964) 193000 65300 74600 105000 109000 179000 256000 271000 363000 414000
2020-02-23 14:00 18.04 259000 471000 (1982) 53000 (1964) 193000 65300 74600 105000 109000 179000 256000 271000 363000 414000
2020-02-23 13:30 17.90 257000 471000 (1982) 53000 (1964) 193000 65300 74600 105000 109000 179000 256000 271000 363000 414000
2020-02-23 13:00 17.99 258000 471000 (1982) 53000 (1964) 193000 65300 74600 105000 109000 179000 256000 271000 363000 414000
2020-02-23 12:30 17.93 258000 471000 (1982) 53000 (1964) 193000 65300 74600 105000 109000 179000 256000 271000 363000 414000
2020-02-23 12:00 17.81 256000 471000 (1982) 53000 (1964) 193000 65300 74600 105000 109000 179000 256000 271000 363000 414000
2020-02-23 11:30 17.94 258000 471000 (1982) 53000 (1964) 193000 65300 74600 105000 109000 179000 256000 271000 363000 414000
2020-02-23 11:00 17.87 257000 471000 (1982) 53000 (1964) 193000 65300 74600 105000 109000 179000 256000 271000 363000 414000
2020-02-23 10:30 17.83 256000 471000 (1982) 53000 (1964) 193000 65300 74600 105000 109000 179000 256000 271000 363000 414000
2020-02-23 10:00 17.78 255000 471000 (1982) 53000 (1964) 193000 65300 74600 105000 109000 179000 256000 271000 363000 414000
2020-02-23 09:30 17.74 255000 471000 (1982) 53000 (1964) 193000 65300 74600 105000 109000 179000 256000 271000 363000 414000
2020-02-23 09:00 17.81 256000 471000 (1982) 53000 (1964) 193000 65300 74600 105000 109000 179000 256000 271000 363000 414000
2020-02-23 08:30 17.79 255000 471000 (1982) 53000 (1964) 193000 65300 74600 105000 109000 179000 256000 271000 363000 414000
2020-02-23 08:00 17.77 255000 471000 (1982) 53000 (1964) 193000 65300 74600 105000 109000 179000 256000 271000 363000 414000
2020-02-23 07:30 17.80 256000 471000 (1982) 53000 (1964) 193000 65300 74600 105000 109000 179000 256000 271000 363000 414000
2020-02-23 07:00 17.79 255000 471000 (1982) 53000 (1964) 193000 65300 74600 105000 109000 179000 256000 271000 363000 414000
2020-02-23 06:30 17.81 256000 471000 (1982) 53000 (1964) 193000 65300 74600 105000 109000 179000 256000 271000 363000 414000
2020-02-23 06:00 17.82 256000 471000 (1982) 53000 (1964) 193000 65300 74600 105000 109000 179000 256000 271000 363000 414000
2020-02-23 05:30 17.74 255000 471000 (1982) 53000 (1964) 193000 65300 74600 105000 109000 179000 256000 271000 363000 414000
2020-02-23 05:00 17.74 255000 471000 (1982) 53000 (1964) 193000 65300 74600 105000 109000 179000 256000 271000 363000 414000
2020-02-23 04:30 17.71 254000 471000 (1982) 53000 (1964) 193000 65300 74600 105000 109000 179000 256000 271000 363000 414000
2020-02-23 04:00 17.77 255000 471000 (1982) 53000 (1964) 193000 65300 74600 105000 109000 179000 256000 271000 363000 414000
2020-02-23 03:30 17.69 254000 471000 (1982) 53000 (1964) 193000 65300 74600 105000 109000 179000 256000 271000 363000 414000
2020-02-23 03:00 17.78 255000 471000 (1982) 53000 (1964) 193000 65300 74600 105000 109000 179000 256000 271000 363000 414000
2020-02-23 02:30 17.68 254000 471000 (1982) 53000 (1964) 193000 65300 74600 105000 109000 179000 256000 271000 363000 414000
2020-02-23 02:00 17.77 255000 471000 (1982) 53000 (1964) 193000 65300 74600 105000 109000 179000 256000 271000 363000 414000
2020-02-23 01:30 17.79 255000 471000 (1982) 53000 (1964) 193000 65300 74600 105000 109000 179000 256000 271000 363000 414000
2020-02-23 01:00 17.76 255000 471000 (1982) 53000 (1964) 193000 65300 74600 105000 109000 179000 256000 271000 363000 414000
2020-02-23 00:30 17.80 256000 471000 (1982) 53000 (1964) 193000 65300 74600 105000 109000 179000 256000 271000 363000 414000
2020-02-23 00:00 17.79 255000 471000 (1982) 53000 (1964) 193000 65300 74600 105000 109000 179000 256000 271000 363000 414000
2020-02-22 23:30 17.77 255000 439000 (1982) 55800 (1964) 181000 63300 75000 108000 111000 171000 231000 253000 320000 387000
2020-02-22 23:00 17.77 255000 439000 (1982) 55800 (1964) 181000 63300 75000 108000 111000 171000 231000 253000 320000 387000
2020-02-22 22:30 17.73 254000 439000 (1982) 55800 (1964) 181000 63300 75000 108000 111000 171000 231000 253000 320000 387000
2020-02-22 22:00 17.74 255000 439000 (1982) 55800 (1964) 181000 63300 75000 108000 111000 171000 231000 253000 320000 387000
2020-02-22 21:30 17.78 255000 439000 (1982) 55800 (1964) 181000 63300 75000 108000 111000 171000 231000 253000 320000 387000
2020-02-22 21:00 17.74 255000 439000 (1982) 55800 (1964) 181000 63300 75000 108000 111000 171000 231000 253000 320000 387000
2020-02-22 20:30 17.74 255000 439000 (1982) 55800 (1964) 181000 63300 75000 108000 111000 171000 231000 253000 320000 387000
2020-02-22 20:00 17.75 255000 439000 (1982) 55800 (1964) 181000 63300 75000 108000 111000 171000 231000 253000 320000 387000
2020-02-22 19:30 17.80 256000 439000 (1982) 55800 (1964) 181000 63300 75000 108000 111000 171000 231000 253000 320000 387000
2020-02-22 19:00 17.85 256000 439000 (1982) 55800 (1964) 181000 63300 75000 108000 111000 171000 231000 253000 320000 387000
2020-02-22 18:30 17.82 256000 439000 (1982) 55800 (1964) 181000 63300 75000 108000 111000 171000 231000 253000 320000 387000
2020-02-22 18:00 17.79 255000 439000 (1982) 55800 (1964) 181000 63300 75000 108000 111000 171000 231000 253000 320000 387000
2020-02-22 17:30 17.82 256000 439000 (1982) 55800 (1964) 181000 63300 75000 108000 111000 171000 231000 253000 320000 387000
2020-02-22 17:00 17.82 256000 439000 (1982) 55800 (1964) 181000 63300 75000 108000 111000 171000 231000 253000 320000 387000
2020-02-22 16:30 17.84 256000 439000 (1982) 55800 (1964) 181000 63300 75000 108000 111000 171000 231000 253000 320000 387000
2020-02-22 16:00 17.91 257000 439000 (1982) 55800 (1964) 181000 63300 75000 108000 111000 171000 231000 253000 320000 387000
2020-02-22 15:30 17.91 257000 439000 (1982) 55800 (1964) 181000 63300 75000 108000 111000 171000 231000 253000 320000 387000
2020-02-22 15:00 17.87 257000 439000 (1982) 55800 (1964) 181000 63300 75000 108000 111000 171000 231000 253000 320000 387000
2020-02-22 14:30 17.94 258000 439000 (1982) 55800 (1964) 181000 63300 75000 108000 111000 171000 231000 253000 320000 387000
2020-02-22 14:00 17.88 257000 439000 (1982) 55800 (1964) 181000 63300 75000 108000 111000 171000 231000 253000 320000 387000
2020-02-22 13:30 17.91 257000 439000 (1982) 55800 (1964) 181000 63300 75000 108000 111000 171000 231000 253000 320000 387000
2020-02-22 13:00 17.92 257000 439000 (1982) 55800 (1964) 181000 63300 75000 108000 111000 171000 231000 253000 320000 387000
2020-02-22 12:30 17.94 258000 439000 (1982) 55800 (1964) 181000 63300 75000 108000 111000 171000 231000 253000 320000 387000
2020-02-22 12:00 17.84 256000 439000 (1982) 55800 (1964) 181000 63300 75000 108000 111000 171000 231000 253000 320000 387000
2020-02-22 11:30 17.87 257000 439000 (1982) 55800 (1964) 181000 63300 75000 108000 111000 171000 231000 253000 320000 387000
2020-02-22 11:00 17.82 256000 439000 (1982) 55800 (1964) 181000 63300 75000 108000 111000 171000 231000 253000 320000 387000
2020-02-22 10:30 17.83 256000 439000 (1982) 55800 (1964) 181000 63300 75000 108000 111000 171000 231000 253000 320000 387000
2020-02-22 10:00 17.87 257000 439000 (1982) 55800 (1964) 181000 63300 75000 108000 111000 171000 231000 253000 320000 387000
2020-02-22 09:30 17.86 256000 439000 (1982) 55800 (1964) 181000 63300 75000 108000 111000 171000 231000 253000 320000 387000
2020-02-22 09:00 17.90 257000 439000 (1982) 55800 (1964) 181000 63300 75000 108000 111000 171000 231000 253000 320000 387000
2020-02-22 08:30 17.85 256000 439000 (1982) 55800 (1964) 181000 63300 75000 108000 111000 171000 231000 253000 320000 387000
2020-02-22 08:00 17.89 257000 439000 (1982) 55800 (1964) 181000 63300 75000 108000 111000 171000 231000 253000 320000 387000
2020-02-22 07:30 17.93 258000 439000 (1982) 55800 (1964) 181000 63300 75000 108000 111000 171000 231000 253000 320000 387000
2020-02-22 07:00 17.91 257000 439000 (1982) 55800 (1964) 181000 63300 75000 108000 111000 171000 231000 253000 320000 387000
2020-02-22 06:30 17.94 258000 439000 (1982) 55800 (1964) 181000 63300 75000 108000 111000 171000 231000 253000 320000 387000
2020-02-22 06:00 17.95 258000 439000 (1982) 55800 (1964) 181000 63300 75000 108000 111000 171000 231000 253000 320000 387000
2020-02-22 05:30 17.96 258000 439000 (1982) 55800 (1964) 181000 63300 75000 108000 111000 171000 231000 253000 320000 387000
2020-02-22 05:00 17.98 258000 439000 (1982) 55800 (1964) 181000 63300 75000 108000 111000 171000 231000 253000 320000 387000
2020-02-22 04:30 18.00 259000 439000 (1982) 55800 (1964) 181000 63300 75000 108000 111000 171000 231000 253000 320000 387000
2020-02-22 04:00 18.01 259000 439000 (1982) 55800 (1964) 181000 63300 75000 108000 111000 171000 231000 253000 320000 387000
2020-02-22 03:30 18.08 260000 439000 (1982) 55800 (1964) 181000 63300 75000 108000 111000 171000 231000 253000 320000 387000
2020-02-22 03:00 18.03 259000 439000 (1982) 55800 (1964) 181000 63300 75000 108000 111000 171000 231000 253000 320000 387000
2020-02-22 02:30 18.09 260000 439000 (1982) 55800 (1964) 181000 63300 75000 108000 111000 171000 231000 253000 320000 387000
2020-02-22 02:00 18.06 260000 439000 (1982) 55800 (1964) 181000 63300 75000 108000 111000 171000 231000 253000 320000 387000
2020-02-22 01:30 18.06 260000 439000 (1982) 55800 (1964) 181000 63300 75000 108000 111000 171000 231000 253000 320000 387000
2020-02-22 01:00 18.06 260000 439000 (1982) 55800 (1964) 181000 63300 75000 108000 111000 171000 231000 253000 320000 387000
2020-02-22 00:30 18.13 261000 439000 (1982) 55800 (1964) 181000 63300 75000 108000 111000 171000 231000 253000 320000 387000
2020-02-22 00:00 18.16 261000 439000 (1982) 55800 (1964) 181000 63300 75000 108000 111000 171000 231000 253000 320000 387000
2020-02-21 23:30 18.12 261000 406000 (1982) 53700 (1964) 171000 61100 75300 97400 103000 156000 211000 240000 302000 356000
2020-02-21 23:00 18.15 261000 406000 (1982) 53700 (1964) 171000 61100 75300 97400 103000 156000 211000 240000 302000 356000
2020-02-21 22:30 18.21 262000 406000 (1982) 53700 (1964) 171000 61100 75300 97400 103000 156000 211000 240000 302000 356000
2020-02-21 22:00 18.21 262000 406000 (1982) 53700 (1964) 171000 61100 75300 97400 103000 156000 211000 240000 302000 356000
2020-02-21 21:30 18.18 261000 406000 (1982) 53700 (1964) 171000 61100 75300 97400 103000 156000 211000 240000 302000 356000
2020-02-21 21:00 18.25 263000 406000 (1982) 53700 (1964) 171000 61100 75300 97400 103000 156000 211000 240000 302000 356000
2020-02-21 20:30 18.23 262000 406000 (1982) 53700 (1964) 171000 61100 75300 97400 103000 156000 211000 240000 302000 356000
2020-02-21 20:00 18.27 263000 406000 (1982) 53700 (1964) 171000 61100 75300 97400 103000 156000 211000 240000 302000 356000
2020-02-21 19:30 18.17 261000 406000 (1982) 53700 (1964) 171000 61100 75300 97400 103000 156000 211000 240000 302000 356000
2020-02-21 19:00 18.29 263000 406000 (1982) 53700 (1964) 171000 61100 75300 97400 103000 156000 211000 240000 302000 356000
2020-02-21 18:30 18.25 263000 406000 (1982) 53700 (1964) 171000 61100 75300 97400 103000 156000 211000 240000 302000 356000
2020-02-21 18:00 18.30 263000 406000 (1982) 53700 (1964) 171000 61100 75300 97400 103000 156000 211000 240000 302000 356000
2020-02-21 17:30 18.35 264000 406000 (1982) 53700 (1964) 171000 61100 75300 97400 103000 156000 211000 240000 302000 356000
2020-02-21 17:00 18.46 266000 406000 (1982) 53700 (1964) 171000 61100 75300 97400 103000 156000 211000 240000 302000 356000
2020-02-21 16:30 18.41 265000 406000 (1982) 53700 (1964) 171000 61100 75300 97400 103000 156000 211000 240000 302000 356000
2020-02-21 16:00 18.42 265000 406000 (1982) 53700 (1964) 171000 61100 75300 97400 103000 156000 211000 240000 302000 356000
2020-02-21 15:30 18.46 266000 406000 (1982) 53700 (1964) 171000 61100 75300 97400 103000 156000 211000 240000 302000 356000
2020-02-21 15:00 18.43 265000 406000 (1982) 53700 (1964) 171000 61100 75300 97400 103000 156000 211000 240000 302000 356000
2020-02-21 14:30 18.42 265000 406000 (1982) 53700 (1964) 171000 61100 75300 97400 103000 156000 211000 240000 302000 356000
2020-02-21 14:00 18.48 266000 406000 (1982) 53700 (1964) 171000 61100 75300 97400 103000 156000 211000 240000 302000 356000
2020-02-21 13:30 18.46 266000 406000 (1982) 53700 (1964) 171000 61100 75300 97400 103000 156000 211000 240000 302000 356000
2020-02-21 13:00 18.47 266000 406000 (1982) 53700 (1964) 171000 61100 75300 97400 103000 156000 211000 240000 302000 356000
2020-02-21 12:30 18.41 265000 406000 (1982) 53700 (1964) 171000 61100 75300 97400 103000 156000 211000 240000 302000 356000
2020-02-21 12:00 18.34 264000 406000 (1982) 53700 (1964) 171000 61100 75300 97400 103000 156000 211000 240000 302000 356000
2020-02-21 11:30 18.34 264000 406000 (1982) 53700 (1964) 171000 61100 75300 97400 103000 156000 211000 240000 302000 356000
2020-02-21 11:00 18.28 263000 406000 (1982) 53700 (1964) 171000 61100 75300 97400 103000 156000 211000 240000 302000 356000
2020-02-21 10:30 18.38 265000 406000 (1982) 53700 (1964) 171000 61100 75300 97400 103000 156000 211000 240000 302000 356000
2020-02-21 10:00 18.41 265000 406000 (1982) 53700 (1964) 171000 61100 75300 97400 103000 156000 211000 240000 302000 356000
2020-02-21 09:30 18.42 265000 406000 (1982) 53700 (1964) 171000 61100 75300 97400 103000 156000 211000 240000 302000 356000
2020-02-21 09:00 18.31 264000 406000 (1982) 53700 (1964) 171000 61100 75300 97400 103000 156000 211000 240000 302000 356000
2020-02-21 08:30 18.39 265000 406000 (1982) 53700 (1964) 171000 61100 75300 97400 103000 156000 211000 240000 302000 356000
2020-02-21 08:00 18.43 265000 406000 (1982) 53700 (1964) 171000 61100 75300 97400 103000 156000 211000 240000 302000 356000
2020-02-21 07:30 18.49 266000 406000 (1982) 53700 (1964) 171000 61100 75300 97400 103000 156000 211000 240000 302000 356000
2020-02-21 07:00 18.46 266000 406000 (1982) 53700 (1964) 171000 61100 75300 97400 103000 156000 211000 240000 302000 356000
2020-02-21 06:30 18.49 266000 406000 (1982) 53700 (1964) 171000 61100 75300 97400 103000 156000 211000 240000 302000 356000
2020-02-21 06:00 18.38 265000 406000 (1982) 53700 (1964) 171000 61100 75300 97400 103000 156000 211000 240000 302000 356000
2020-02-21 05:30 18.49 266000 406000 (1982) 53700 (1964) 171000 61100 75300 97400 103000 156000 211000 240000 302000 356000
2020-02-21 05:00 18.53 267000 406000 (1982) 53700 (1964) 171000 61100 75300 97400 103000 156000 211000 240000 302000 356000
2020-02-21 04:30 18.52 267000 406000 (1982) 53700 (1964) 171000 61100 75300 97400 103000 156000 211000 240000 302000 356000
2020-02-21 04:00 18.51 267000 406000 (1982) 53700 (1964) 171000 61100 75300 97400 103000 156000 211000 240000 302000 356000
2020-02-21 03:30 18.57 268000 406000 (1982) 53700 (1964) 171000 61100 75300 97400 103000 156000 211000 240000 302000 356000
2020-02-21 03:00 18.58 268000 406000 (1982) 53700 (1964) 171000 61100 75300 97400 103000 156000 211000 240000 302000 356000
2020-02-21 02:30 18.60 268000 406000 (1982) 53700 (1964) 171000 61100 75300 97400 103000 156000 211000 240000 302000 356000
2020-02-21 02:00 18.66 269000 406000 (1982) 53700 (1964) 171000 61100 75300 97400 103000 156000 211000 240000 302000 356000
2020-02-21 01:30 18.64 269000 406000 (1982) 53700 (1964) 171000 61100 75300 97400 103000 156000 211000 240000 302000 356000
2020-02-21 01:00 18.67 269000 406000 (1982) 53700 (1964) 171000 61100 75300 97400 103000 156000 211000 240000 302000 356000
2020-02-21 00:30 18.66 269000 406000 (1982) 53700 (1964) 171000 61100 75300 97400 103000 156000 211000 240000 302000 356000
2020-02-21 00:00 18.75 271000 406000 (1982) 53700 (1964) 171000 61100 75300 97400 103000 156000 211000 240000 302000 356000
2020-02-20 23:30 18.73 270000 370000 (1982) 53000 (1964) 165000 62400 72200 92500 102000 141000 205000 236000 293000 350000
2020-02-20 23:00 18.74 270000 370000 (1982) 53000 (1964) 165000 62400 72200 92500 102000 141000 205000 236000 293000 350000
2020-02-20 22:30 18.67 269000 370000 (1982) 53000 (1964) 165000 62400 72200 92500 102000 141000 205000 236000 293000 350000
2020-02-20 22:00 18.74 270000 370000 (1982) 53000 (1964) 165000 62400 72200 92500 102000 141000 205000 236000 293000 350000
2020-02-20 21:30 18.82 272000 370000 (1982) 53000 (1964) 165000 62400 72200 92500 102000 141000 205000 236000 293000 350000
2020-02-20 21:00 18.79 271000 370000 (1982) 53000 (1964) 165000 62400 72200 92500 102000 141000 205000 236000 293000 350000
2020-02-20 20:30 18.84 272000 370000 (1982) 53000 (1964) 165000 62400 72200 92500 102000 141000 205000 236000 293000 350000
2020-02-20 20:00 18.88 273000 370000 (1982) 53000 (1964) 165000 62400 72200 92500 102000 141000 205000 236000 293000 350000
2020-02-20 19:30 18.82 272000 370000 (1982) 53000 (1964) 165000 62400 72200 92500 102000 141000 205000 236000 293000 350000
2020-02-20 19:00 18.76 271000 370000 (1982) 53000 (1964) 165000 62400 72200 92500 102000 141000 205000 236000 293000 350000
2020-02-20 18:30 18.82 272000 370000 (1982) 53000 (1964) 165000 62400 72200 92500 102000 141000 205000 236000 293000 350000
2020-02-20 18:00 18.85 272000 370000 (1982) 53000 (1964) 165000 62400 72200 92500 102000 141000 205000 236000 293000 350000
2020-02-20 17:30 19.03 275000 370000 (1982) 53000 (1964) 165000 62400 72200 92500 102000 141000 205000 236000 293000 350000
2020-02-20 17:00 19.03 275000 370000 (1982) 53000 (1964) 165000 62400 72200 92500 102000 141000 205000 236000 293000 350000
2020-02-20 16:30 19.03 275000 370000 (1982) 53000 (1964) 165000 62400 72200 92500 102000 141000 205000 236000 293000 350000
2020-02-20 16:00 19.03 275000 370000 (1982) 53000 (1964) 165000 62400 72200 92500 102000 141000 205000 236000 293000 350000
2020-02-20 15:30 19.03 275000 370000 (1982) 53000 (1964) 165000 62400 72200 92500 102000 141000 205000 236000 293000 350000
2020-02-20 15:00 19.02 275000 370000 (1982) 53000 (1964) 165000 62400 72200 92500 102000 141000 205000 236000 293000 350000
2020-02-20 14:30 19.06 276000 370000 (1982) 53000 (1964) 165000 62400 72200 92500 102000 141000 205000 236000 293000 350000
2020-02-20 14:00 19.04 275000 370000 (1982) 53000 (1964) 165000 62400 72200 92500 102000 141000 205000 236000 293000 350000
2020-02-20 13:30 19.10 276000 370000 (1982) 53000 (1964) 165000 62400 72200 92500 102000 141000 205000 236000 293000 350000
2020-02-20 13:00 19.02 275000 370000 (1982) 53000 (1964) 165000 62400 72200 92500 102000 141000 205000 236000 293000 350000
2020-02-20 12:30 19.06 276000 370000 (1982) 53000 (1964) 165000 62400 72200 92500 102000 141000 205000 236000 293000 350000
2020-02-20 12:00 19.04 275000 370000 (1982) 53000 (1964) 165000 62400 72200 92500 102000 141000 205000 236000 293000 350000
2020-02-20 11:30 19.06 276000 370000 (1982) 53000 (1964) 165000 62400 72200 92500 102000 141000 205000 236000 293000 350000
2020-02-20 11:00 19.03 275000 370000 (1982) 53000 (1964) 165000 62400 72200 92500 102000 141000 205000 236000 293000 350000
2020-02-20 10:30 19.03 275000 370000 (1982) 53000 (1964) 165000 62400 72200 92500 102000 141000 205000 236000 293000 350000
2020-02-20 10:00 19.04 275000 370000 (1982) 53000 (1964) 165000 62400 72200 92500 102000 141000 205000 236000 293000 350000
2020-02-20 09:30 19.02 275000 370000 (1982) 53000 (1964) 165000 62400 72200 92500 102000 141000 205000 236000 293000 350000
2020-02-20 09:00 19.01 275000 370000 (1982) 53000 (1964) 165000 62400 72200 92500 102000 141000 205000 236000 293000 350000
2020-02-20 08:30 19.06 276000 370000 (1982) 53000 (1964) 165000 62400 72200 92500 102000 141000 205000 236000 293000 350000
2020-02-20 08:00 18.90 273000 370000 (1982) 53000 (1964) 165000 62400 72200 92500 102000 141000 205000 236000 293000 350000
2020-02-20 07:30 19.05 276000 370000 (1982) 53000 (1964) 165000 62400 72200 92500 102000 141000 205000 236000 293000 350000
2020-02-20 07:00 19.04 275000 370000 (1982) 53000 (1964) 165000 62400 72200 92500 102000 141000 205000 236000 293000 350000
2020-02-20 06:30 19.04 275000 370000 (1982) 53000 (1964) 165000 62400 72200 92500 102000 141000 205000 236000 293000 350000
2020-02-20 06:00 19.05 276000 370000 (1982) 53000 (1964) 165000 62400 72200 92500 102000 141000 205000 236000 293000 350000
2020-02-20 05:30 19.09 276000 370000 (1982) 53000 (1964) 165000 62400 72200 92500 102000 141000 205000 236000 293000 350000
2020-02-20 05:00 19.06 276000 370000 (1982) 53000 (1964) 165000 62400 72200 92500 102000 141000 205000 236000 293000 350000
2020-02-20 04:30 19.09 276000 370000 (1982) 53000 (1964) 165000 62400 72200 92500 102000 141000 205000 236000 293000 350000
2020-02-20 04:00 19.07 276000 370000 (1982) 53000 (1964) 165000 62400 72200 92500 102000 141000 205000 236000 293000 350000
2020-02-20 03:30 19.08 276000 370000 (1982) 53000 (1964) 165000 62400 72200 92500 102000 141000 205000 236000 293000 350000
2020-02-20 03:00 19.00 275000 370000 (1982) 53000 (1964) 165000 62400 72200 92500 102000 141000 205000 236000 293000 350000
2020-02-20 02:30 19.09 276000 370000 (1982) 53000 (1964) 165000 62400 72200 92500 102000 141000 205000 236000 293000 350000
2020-02-20 02:00 19.04 275000 370000 (1982) 53000 (1964) 165000 62400 72200 92500 102000 141000 205000 236000 293000 350000
2020-02-20 01:30 19.10 276000 370000 (1982) 53000 (1964) 165000 62400 72200 92500 102000 141000 205000 236000 293000 350000
2020-02-20 01:00 19.09 276000 370000 (1982) 53000 (1964) 165000 62400 72200 92500 102000 141000 205000 236000 293000 350000
2020-02-20 00:30 19.07 276000 370000 (1982) 53000 (1964) 165000 62400 72200 92500 102000 141000 205000 236000 293000 350000
2020-02-20 00:00 19.09 276000 370000 (1982) 53000 (1964) 165000 62400 72200 92500 102000 141000 205000 236000 293000 350000
2020-02-19 23:30 19.04 275000 381000 (2005) 54400 (1964) 162000 63900 74400 92500 102000 142000 215000 230000 292000 312000
2020-02-19 23:00 19.10 276000 381000 (2005) 54400 (1964) 162000 63900 74400 92500 102000 142000 215000 230000 292000 312000
2020-02-19 22:30 19.06 276000 381000 (2005) 54400 (1964) 162000 63900 74400 92500 102000 142000 215000 230000 292000 312000
2020-02-19 22:00 19.08 276000 381000 (2005) 54400 (1964) 162000 63900 74400 92500 102000 142000 215000 230000 292000 312000
2020-02-19 21:30 19.09 276000 381000 (2005) 54400 (1964) 162000 63900 74400 92500 102000 142000 215000 230000 292000 312000
2020-02-19 21:00 19.10 276000 381000 (2005) 54400 (1964) 162000 63900 74400 92500 102000 142000 215000 230000 292000 312000
2020-02-19 20:30 19.11 277000 381000 (2005) 54400 (1964) 162000 63900 74400 92500 102000 142000 215000 230000 292000 312000
2020-02-19 20:00 19.10 276000 381000 (2005) 54400 (1964) 162000 63900 74400 92500 102000 142000 215000 230000 292000 312000
2020-02-19 19:30 19.10 276000 381000 (2005) 54400 (1964) 162000 63900 74400 92500 102000 142000 215000 230000 292000 312000
2020-02-19 19:00 19.12 277000 381000 (2005) 54400 (1964) 162000 63900 74400 92500 102000 142000 215000 230000 292000 312000
2020-02-19 18:30 19.14 277000 381000 (2005) 54400 (1964) 162000 63900 74400 92500 102000 142000 215000 230000 292000 312000
2020-02-19 18:00 19.14 277000 381000 (2005) 54400 (1964) 162000 63900 74400 92500 102000 142000 215000 230000 292000 312000
2020-02-19 17:30 19.13 277000 381000 (2005) 54400 (1964) 162000 63900 74400 92500 102000 142000 215000 230000 292000 312000
2020-02-19 17:00 19.22 278000 381000 (2005) 54400 (1964) 162000 63900 74400 92500 102000 142000 215000 230000 292000 312000
2020-02-19 16:30 19.07 276000 381000 (2005) 54400 (1964) 162000 63900 74400 92500 102000 142000 215000 230000 292000 312000
2020-02-19 16:00 19.16 277000 381000 (2005) 54400 (1964) 162000 63900 74400 92500 102000 142000 215000 230000 292000 312000
2020-02-19 15:30 19.29 279000 381000 (2005) 54400 (1964) 162000 63900 74400 92500 102000 142000 215000 230000 292000 312000
2020-02-19 15:00 19.21 278000 381000 (2005) 54400 (1964) 162000 63900 74400 92500 102000 142000 215000 230000 292000 312000
2020-02-19 14:30 19.17 278000 381000 (2005) 54400 (1964) 162000 63900 74400 92500 102000 142000 215000 230000 292000 312000
2020-02-19 14:00 19.16 277000 381000 (2005) 54400 (1964) 162000 63900 74400 92500 102000 142000 215000 230000 292000 312000
2020-02-19 13:30 19.13 277000 381000 (2005) 54400 (1964) 162000 63900 74400 92500 102000 142000 215000 230000 292000 312000
2020-02-19 13:00 19.15 277000 381000 (2005) 54400 (1964) 162000 63900 74400 92500 102000 142000 215000 230000 292000 312000
2020-02-19 12:30 19.05 276000 381000 (2005) 54400 (1964) 162000 63900 74400 92500 102000 142000 215000 230000 292000 312000
2020-02-19 12:00 19.14 277000 381000 (2005) 54400 (1964) 162000 63900 74400 92500 102000 142000 215000 230000 292000 312000
2020-02-19 11:30 19.05 276000 381000 (2005) 54400 (1964) 162000 63900 74400 92500 102000 142000 215000 230000 292000 312000
2020-02-19 11:00 19.07 276000 381000 (2005) 54400 (1964) 162000 63900 74400 92500 102000 142000 215000 230000 292000 312000
2020-02-19 10:30 19.05 276000 381000 (2005) 54400 (1964) 162000 63900 74400 92500 102000 142000 215000 230000 292000 312000
2020-02-19 10:00 18.99 275000 381000 (2005) 54400 (1964) 162000 63900 74400 92500 102000 142000 215000 230000 292000 312000
2020-02-19 09:30 18.98 274000 381000 (2005) 54400 (1964) 162000 63900 74400 92500 102000 142000 215000 230000 292000 312000
2020-02-19 09:00 18.94 274000 381000 (2005) 54400 (1964) 162000 63900 74400 92500 102000 142000 215000 230000 292000 312000
2020-02-19 08:30 18.95 274000 381000 (2005) 54400 (1964) 162000 63900 74400 92500 102000 142000 215000 230000 292000 312000
2020-02-19 08:00 18.93 274000 381000 (2005) 54400 (1964) 162000 63900 74400 92500 102000 142000 215000 230000 292000 312000
2020-02-19 07:30 18.92 273000 381000 (2005) 54400 (1964) 162000 63900 74400 92500 102000 142000 215000 230000 292000 312000
2020-02-19 07:00 18.89 273000 381000 (2005) 54400 (1964) 162000 63900 74400 92500 102000 142000 215000 230000 292000 312000
2020-02-19 06:30 18.89 273000 381000 (2005) 54400 (1964) 162000 63900 74400 92500 102000 142000 215000 230000 292000 312000
2020-02-19 06:00 18.89 273000 381000 (2005) 54400 (1964) 162000 63900 74400 92500 102000 142000 215000 230000 292000 312000
2020-02-19 05:30 18.90 273000 381000 (2005) 54400 (1964) 162000 63900 74400 92500 102000 142000 215000 230000 292000 312000
2020-02-19 05:00 18.87 273000 381000 (2005) 54400 (1964) 162000 63900 74400 92500 102000 142000 215000 230000 292000 312000
2020-02-19 04:30 18.84 272000 381000 (2005) 54400 (1964) 162000 63900 74400 92500 102000 142000 215000 230000 292000 312000
2020-02-19 04:00 18.85 272000 381000 (2005) 54400 (1964) 162000 63900 74400 92500 102000 142000 215000 230000 292000 312000
2020-02-19 03:30 18.85 272000 381000 (2005) 54400 (1964) 162000 63900 74400 92500 102000 142000 215000 230000 292000 312000
2020-02-19 03:00 18.76 271000 381000 (2005) 54400 (1964) 162000 63900 74400 92500 102000 142000 215000 230000 292000 312000
2020-02-19 02:30 18.77 271000 381000 (2005) 54400 (1964) 162000 63900 74400 92500 102000 142000 215000 230000 292000 312000
2020-02-19 02:00 18.74 270000 381000 (2005) 54400 (1964) 162000 63900 74400 92500 102000 142000 215000 230000 292000 312000
2020-02-19 01:30 18.75 271000 381000 (2005) 54400 (1964) 162000 63900 74400 92500 102000 142000 215000 230000 292000 312000
2020-02-19 01:00 18.76 271000 381000 (2005) 54400 (1964) 162000 63900 74400 92500 102000 142000 215000 230000 292000 312000
2020-02-19 00:30 18.74 270000 381000 (2005) 54400 (1964) 162000 63900 74400 92500 102000 142000 215000 230000 292000 312000
2020-02-19 00:00 18.69 270000 381000 (2005) 54400 (1964) 162000 63900 74400 92500 102000 142000 215000 230000 292000 312000
2020-02-18 23:30 18.68 270000 393000 (2005) 50900 (1964) 159000 64100 73100 84900 94600 150000 221000 232000 277000 305000
2020-02-18 23:00 18.56 268000 393000 (2005) 50900 (1964) 159000 64100 73100 84900 94600 150000 221000 232000 277000 305000
2020-02-18 22:30 18.64 269000 393000 (2005) 50900 (1964) 159000 64100 73100 84900 94600 150000 221000 232000 277000 305000
2020-02-18 22:00 18.59 268000 393000 (2005) 50900 (1964) 159000 64100 73100 84900 94600 150000 221000 232000 277000 305000
2020-02-18 21:30 18.57 268000 393000 (2005) 50900 (1964) 159000 64100 73100 84900 94600 150000 221000 232000 277000 305000
2020-02-18 21:00 18.48 266000 393000 (2005) 50900 (1964) 159000 64100 73100 84900 94600 150000 221000 232000 277000 305000
2020-02-18 20:30 18.54 267000 393000 (2005) 50900 (1964) 159000 64100 73100 84900 94600 150000 221000 232000 277000 305000
2020-02-18 20:00 18.55 267000 393000 (2005) 50900 (1964) 159000 64100 73100 84900 94600 150000 221000 232000 277000 305000
2020-02-18 19:30 18.48 266000 393000 (2005) 50900 (1964) 159000 64100 73100 84900 94600 150000 221000 232000 277000 305000
2020-02-18 19:00 18.53 267000 393000 (2005) 50900 (1964) 159000 64100 73100 84900 94600 150000 221000 232000 277000 305000
2020-02-18 18:30 18.53 267000 393000 (2005) 50900 (1964) 159000 64100 73100 84900 94600 150000 221000 232000 277000 305000
2020-02-18 18:00 18.45 266000 393000 (2005) 50900 (1964) 159000 64100 73100 84900 94600 150000 221000 232000 277000 305000
2020-02-18 17:30 18.40 265000 393000 (2005) 50900 (1964) 159000 64100 73100 84900 94600 150000 221000 232000 277000 305000
2020-02-18 17:00 18.41 265000 393000 (2005) 50900 (1964) 159000 64100 73100 84900 94600 150000 221000 232000 277000 305000
2020-02-18 16:30 18.42 265000 393000 (2005) 50900 (1964) 159000 64100 73100 84900 94600 150000 221000 232000 277000 305000
2020-02-18 16:00 18.41 265000 393000 (2005) 50900 (1964) 159000 64100 73100 84900 94600 150000 221000 232000 277000 305000
2020-02-18 15:30 18.38 265000 393000 (2005) 50900 (1964) 159000 64100 73100 84900 94600 150000 221000 232000 277000 305000
2020-02-18 15:00 18.38 265000 393000 (2005) 50900 (1964) 159000 64100 73100 84900 94600 150000 221000 232000 277000 305000
2020-02-18 14:30 18.34 264000 393000 (2005) 50900 (1964) 159000 64100 73100 84900 94600 150000 221000 232000 277000 305000
2020-02-18 14:00 18.38 265000 393000 (2005) 50900 (1964) 159000 64100 73100 84900 94600 150000 221000 232000 277000 305000
2020-02-18 13:30 18.36 264000 393000 (2005) 50900 (1964) 159000 64100 73100 84900 94600 150000 221000 232000 277000 305000
2020-02-18 13:00 18.30 263000 393000 (2005) 50900 (1964) 159000 64100 73100 84900 94600 150000 221000 232000 277000 305000
2020-02-18 12:30 18.29 263000 393000 (2005) 50900 (1964) 159000 64100 73100 84900 94600 150000 221000 232000 277000 305000
2020-02-18 12:00 18.37 265000 393000 (2005) 50900 (1964) 159000 64100 73100 84900 94600 150000 221000 232000 277000 305000
2020-02-18 11:30 18.33 264000 393000 (2005) 50900 (1964) 159000 64100 73100 84900 94600 150000 221000 232000 277000 305000
2020-02-18 11:00 18.24 262000 393000 (2005) 50900 (1964) 159000 64100 73100 84900 94600 150000 221000 232000 277000 305000
2020-02-18 10:30 18.29 263000 393000 (2005) 50900 (1964) 159000 64100 73100 84900 94600 150000 221000 232000 277000 305000
2020-02-18 10:00 18.26 263000 393000 (2005) 50900 (1964) 159000 64100 73100 84900 94600 150000 221000 232000 277000 305000
2020-02-18 09:30 18.25 263000 393000 (2005) 50900 (1964) 159000 64100 73100 84900 94600 150000 221000 232000 277000 305000
2020-02-18 09:00 18.28 263000 393000 (2005) 50900 (1964) 159000 64100 73100 84900 94600 150000 221000 232000 277000 305000
2020-02-18 08:30 18.24 262000 393000 (2005) 50900 (1964) 159000 64100 73100 84900 94600 150000 221000 232000 277000 305000
2020-02-18 08:00 18.26 263000 393000 (2005) 50900 (1964) 159000 64100 73100 84900 94600 150000 221000 232000 277000 305000
2020-02-18 07:30 18.26 263000 393000 (2005) 50900 (1964) 159000 64100 73100 84900 94600 150000 221000 232000 277000 305000
2020-02-18 07:00 18.24 262000 393000 (2005) 50900 (1964) 159000 64100 73100 84900 94600 150000 221000 232000 277000 305000
2020-02-18 06:30 18.23 262000 393000 (2005) 50900 (1964) 159000 64100 73100 84900 94600 150000 221000 232000 277000 305000
2020-02-18 06:00 18.18 261000 393000 (2005) 50900 (1964) 159000 64100 73100 84900 94600 150000 221000 232000 277000 305000
2020-02-18 05:30 18.15 261000 393000 (2005) 50900 (1964) 159000 64100 73100 84900 94600 150000 221000 232000 277000 305000
2020-02-18 05:00 18.22 262000 393000 (2005) 50900 (1964) 159000 64100 73100 84900 94600 150000 221000 232000 277000 305000
2020-02-18 04:30 18.22 262000 393000 (2005) 50900 (1964) 159000 64100 73100 84900 94600 150000 221000 232000 277000 305000
2020-02-18 04:00 18.20 262000 393000 (2005) 50900 (1964) 159000 64100 73100 84900 94600 150000 221000 232000 277000 305000
2020-02-18 03:30 18.15 261000 393000 (2005) 50900 (1964) 159000 64100 73100 84900 94600 150000 221000 232000 277000 305000
2020-02-18 03:00 18.17 261000 393000 (2005) 50900 (1964) 159000 64100 73100 84900 94600 150000 221000 232000 277000 305000
2020-02-18 02:30 18.18 261000 393000 (2005) 50900 (1964) 159000 64100 73100 84900 94600 150000 221000 232000 277000 305000
2020-02-18 02:00 18.14 261000 393000 (2005) 50900 (1964) 159000 64100 73100 84900 94600 150000 221000 232000 277000 305000
2020-02-18 01:30 18.14 261000 393000 (2005) 50900 (1964) 159000 64100 73100 84900 94600 150000 221000 232000 277000 305000
2020-02-18 01:00 18.15 261000 393000 (2005) 50900 (1964) 159000 64100 73100 84900 94600 150000 221000 232000 277000 305000
2020-02-18 00:30 18.12 261000 393000 (2005) 50900 (1964) 159000 64100 73100 84900 94600 150000 221000 232000 277000 305000
2020-02-18 00:00 18.14 261000 393000 (2005) 50900 (1964) 159000 64100 73100 84900 94600 150000 221000 232000 277000 305000

A total of 369 rows are displayed for years 1943 through 2019.